sensor_id;sensor_type;location;lat;lon;timestamp;pressure;altitude;pressure_sealevel;temperature;humidity
4528;BME280;62320;51.520;6.818;2023-02-20T00:03:54;102172.78;;;6.25;100.00
4528;BME280;62320;51.520;6.818;2023-02-20T00:13:55;102157.16;;;6.19;100.00
4528;BME280;62320;51.520;6.818;2023-02-20T00:23:57;102152.72;;;6.15;100.00
4528;BME280;62320;51.520;6.818;2023-02-20T00:33:58;102138.09;;;6.14;100.00
4528;BME280;62320;51.520;6.818;2023-02-20T00:43:59;102133.28;;;6.22;100.00
4528;BME280;62320;51.520;6.818;2023-02-20T00:54:01;102119.78;;;6.27;100.00
4528;BME280;62320;51.520;6.818;2023-02-20T01:04:03;102093.16;;;6.25;100.00
4528;BME280;62320;51.520;6.818;2023-02-20T01:14:04;102075.09;;;6.22;100.00
4528;BME280;62320;51.520;6.818;2023-02-20T01:24:05;102061.94;;;6.15;100.00
4528;BME280;62320;51.520;6.818;2023-02-20T01:34:07;102073.19;;;6.18;100.00
4528;BME280;62320;51.520;6.818;2023-02-20T01:44:18;102070.41;;;6.12;100.00
4528;BME280;62320;51.520;6.818;2023-02-20T01:54:21;102049.41;;;6.22;100.00
4528;BME280;62320;51.520;6.818;2023-02-20T02:04:24;102048.53;;;6.22;100.00
4528;BME280;62320;51.520;6.818;2023-02-20T02:14:26;102025.91;;;6.13;100.00
4528;BME280;62320;51.520;6.818;2023-02-20T02:45:33;101980.06;;;6.00;100.00
4528;BME280;62320;51.520;6.818;2023-02-20T02:55:36;101972.13;;;5.94;100.00
4528;BME280;62320;51.520;6.818;2023-02-20T03:05:43;101942.25;;;5.96;100.00
4528;BME280;62320;51.520;6.818;2023-02-20T03:15:51;101936.16;;;5.93;100.00
4528;BME280;62320;51.520;6.818;2023-02-20T03:25:57;101941.50;;;5.99;100.00
4528;BME280;62320;51.520;6.818;2023-02-20T03:36:01;101932.03;;;5.98;100.00
4528;BME280;62320;51.520;6.818;2023-02-20T03:46:23;101921.00;;;6.00;100.00
4528;BME280;62320;51.520;6.818;2023-02-20T03:56:30;101927.78;;;5.98;100.00
4528;BME280;62320;51.520;6.818;2023-02-20T04:06:34;101919.16;;;5.96;100.00
4528;BME280;62320;51.520;6.818;2023-02-20T04:16:43;101916.47;;;5.93;100.00
4528;BME280;62320;51.520;6.818;2023-02-20T04:26:47;101924.25;;;5.95;100.00
4528;BME280;62320;51.520;6.818;2023-02-20T04:36:52;101928.38;;;5.91;100.00
4528;BME280;62320;51.520;6.818;2023-02-20T04:46:58;101929.38;;;5.95;100.00
4528;BME280;62320;51.520;6.818;2023-02-20T04:57:01;101904.81;;;6.01;100.00
4528;BME280;62320;51.520;6.818;2023-02-20T05:07:02;101909.34;;;6.08;100.00
4528;BME280;62320;51.520;6.818;2023-02-20T05:17:04;101904.28;;;6.11;100.00
4528;BME280;62320;51.520;6.818;2023-02-20T05:27:05;101894.03;;;6.11;100.00
4528;BME280;62320;51.520;6.818;2023-02-20T05:37:07;101885.56;;;6.14;100.00
4528;BME280;62320;51.520;6.818;2023-02-20T05:47:09;101893.50;;;6.20;100.00
4528;BME280;62320;51.520;6.818;2023-02-20T05:57:11;101872.25;;;6.24;100.00
4528;BME280;62320;51.520;6.818;2023-02-20T06:07:13;101884.31;;;6.26;100.00
4528;BME280;62320;51.520;6.818;2023-02-20T06:17:14;101896.28;;;6.26;100.00
4528;BME280;62320;51.520;6.818;2023-02-20T06:27:16;101902.53;;;6.34;100.00
4528;BME280;62320;51.520;6.818;2023-02-20T06:37:19;101927.44;;;6.35;100.00
4528;BME280;62320;51.520;6.818;2023-02-20T06:47:20;101928.50;;;6.41;100.00
4528;BME280;62320;51.520;6.818;2023-02-20T06:57:22;101916.59;;;6.43;100.00
4528;BME280;62320;51.520;6.818;2023-02-20T07:07:23;101922.56;;;6.42;100.00
4528;BME280;62320;51.520;6.818;2023-02-20T07:17:25;101914.31;;;6.51;100.00
4528;BME280;62320;51.520;6.818;2023-02-20T07:27:26;101912.59;;;6.52;100.00
4528;BME280;62320;51.520;6.818;2023-02-20T07:37:28;101923.84;;;6.55;100.00
4528;BME280;62320;51.520;6.818;2023-02-20T07:47:29;101909.59;;;6.63;100.00
4528;BME280;62320;51.520;6.818;2023-02-20T07:57:33;101913.94;;;6.66;100.00
4528;BME280;62320;51.520;6.818;2023-02-20T08:07:35;101904.81;;;6.74;100.00
4528;BME280;62320;51.520;6.818;2023-02-20T08:17:38;101915.28;;;6.80;100.00
4528;BME280;62320;51.520;6.818;2023-02-20T08:27:48;101910.44;;;6.89;100.00
4528;BME280;62320;51.520;6.818;2023-02-20T08:37:50;101900.31;;;6.93;100.00
4528;BME280;62320;51.520;6.818;2023-02-20T08:47:56;101903.94;;;7.00;100.00
4528;BME280;62320;51.520;6.818;2023-02-20T08:58:01;101895.59;;;7.07;100.00
4528;BME280;62320;51.520;6.818;2023-02-20T09:08:03;101893.28;;;7.14;100.00
4528;BME280;62320;51.520;6.818;2023-02-20T09:18:07;101895.25;;;7.22;100.00
4528;BME280;62320;51.520;6.818;2023-02-20T09:28:10;101895.50;;;7.29;100.00
4528;BME280;62320;51.520;6.818;2023-02-20T09:38:11;101883.72;;;7.37;100.00
4528;BME280;62320;51.520;6.818;2023-02-20T09:58:57;101872.78;;;7.44;100.00
4528;BME280;62320;51.520;6.818;2023-02-20T10:09:03;101878.25;;;7.55;100.00
4528;BME280;62320;51.520;6.818;2023-02-20T10:19:17;101864.06;;;7.67;100.00
4528;BME280;62320;51.520;6.818;2023-02-20T10:29:25;101861.09;;;7.83;100.00
4528;BME280;62320;51.520;6.818;2023-02-20T10:39:27;101853.66;;;7.94;100.00
4528;BME280;62320;51.520;6.818;2023-02-20T10:49:49;101844.53;;;8.05;100.00
4528;BME280;62320;51.520;6.818;2023-02-20T11:00:10;101835.50;;;8.21;100.00
4528;BME280;62320;51.520;6.818;2023-02-20T11:10:13;101833.19;;;8.30;100.00
4528;BME280;62320;51.520;6.818;2023-02-20T11:30:37;101831.75;;;8.41;100.00
4528;BME280;62320;51.520;6.818;2023-02-20T11:40:39;101819.75;;;8.41;100.00
4528;BME280;62320;51.520;6.818;2023-02-20T12:00:46;101851.69;;;8.46;100.00
4528;BME280;62320;51.520;6.818;2023-02-20T12:10:49;101840.59;;;8.49;100.00
4528;BME280;62320;51.520;6.818;2023-02-20T12:21:02;101823.56;;;8.55;100.00
4528;BME280;62320;51.520;6.818;2023-02-20T12:52:22;101744.56;;;8.57;100.00
4528;BME280;62320;51.520;6.818;2023-02-20T13:02:34;101737.75;;;8.61;100.00
4528;BME280;62320;51.520;6.818;2023-02-20T13:12:43;101724.84;;;8.61;100.00
4528;BME280;62320;51.520;6.818;2023-02-20T13:22:58;101736.97;;;8.63;100.00
4528;BME280;62320;51.520;6.818;2023-02-20T13:33:19;101755.97;;;8.67;100.00
4528;BME280;62320;51.520;6.818;2023-02-20T13:53:23;101732.78;;;8.69;100.00
4528;BME280;62320;51.520;6.818;2023-02-20T14:03:26;101710.44;;;8.68;100.00
4528;BME280;62320;51.520;6.818;2023-02-20T14:13:29;101707.88;;;8.69;100.00
4528;BME280;62320;51.520;6.818;2023-02-20T14:23:40;101690.75;;;8.73;100.00
4528;BME280;62320;51.520;6.818;2023-02-20T14:33:41;101686.56;;;8.76;100.00
4528;BME280;62320;51.520;6.818;2023-02-20T14:43:43;101692.69;;;8.81;100.00
4528;BME280;62320;51.520;6.818;2023-02-20T14:53:56;101665.13;;;8.79;100.00
4528;BME280;62320;51.520;6.818;2023-02-20T15:04:01;101672.88;;;8.80;100.00
4528;BME280;62320;51.520;6.818;2023-02-20T15:14:23;101667.81;;;8.85;100.00
4528;BME280;62320;51.520;6.818;2023-02-20T15:24:39;101665.25;;;8.85;100.00
4528;BME280;62320;51.520;6.818;2023-02-20T15:34:40;101641.22;;;8.86;100.00
4528;BME280;62320;51.520;6.818;2023-02-20T15:44:42;101652.41;;;8.88;100.00
4528;BME280;62320;51.520;6.818;2023-02-20T15:54:50;101655.03;;;8.89;100.00
4528;BME280;62320;51.520;6.818;2023-02-20T16:04:52;101667.09;;;8.90;100.00
4528;BME280;62320;51.520;6.818;2023-02-20T16:14:54;101652.47;;;8.91;100.00
4528;BME280;62320;51.520;6.818;2023-02-20T16:24:55;101660.19;;;8.91;100.00
4528;BME280;62320;51.520;6.818;2023-02-20T16:34:58;101683.50;;;8.94;100.00
4528;BME280;62320;51.520;6.818;2023-02-20T16:45:19;101665.34;;;8.91;100.00
4528;BME280;62320;51.520;6.818;2023-02-20T16:55:35;101661.09;;;8.93;100.00
4528;BME280;62320;51.520;6.818;2023-02-20T17:05:38;101678.31;;;8.92;100.00
4528;BME280;62320;51.520;6.818;2023-02-20T17:15:40;101677.50;;;8.95;100.00
4528;BME280;62320;51.520;6.818;2023-02-20T17:25:41;101663.72;;;8.94;100.00
4528;BME280;62320;51.520;6.818;2023-02-20T17:35:43;101679.31;;;8.99;100.00
4528;BME280;62320;51.520;6.818;2023-02-20T17:45:45;101693.03;;;8.98;100.00
4528;BME280;62320;51.520;6.818;2023-02-20T17:55:47;101690.53;;;9.01;100.00
4528;BME280;62320;51.520;6.818;2023-02-20T18:05:48;101693.09;;;8.99;100.00
4528;BME280;62320;51.520;6.818;2023-02-20T18:15:50;101687.09;;;9.02;100.00
4528;BME280;62320;51.520;6.818;2023-02-20T18:25:51;101694.00;;;9.03;100.00
4528;BME280;62320;51.520;6.818;2023-02-20T18:35:54;101683.66;;;9.01;100.00
4528;BME280;62320;51.520;6.818;2023-02-20T18:46:30;101676.91;;;9.08;100.00
4528;BME280;62320;51.520;6.818;2023-02-20T18:56:32;101669.97;;;9.05;100.00
4528;BME280;62320;51.520;6.818;2023-02-20T19:06:36;101671.66;;;9.03;100.00
4528;BME280;62320;51.520;6.818;2023-02-20T19:16:52;101669.09;;;9.05;100.00
4528;BME280;62320;51.520;6.818;2023-02-20T19:26:54;101667.31;;;9.01;100.00
4528;BME280;62320;51.520;6.818;2023-02-20T19:36:55;101667.31;;;9.01;100.00
4528;BME280;62320;51.520;6.818;2023-02-20T19:46:57;101639.81;;;9.01;100.00
4528;BME280;62320;51.520;6.818;2023-02-20T19:57:00;101633.78;;;9.01;100.00
4528;BME280;62320;51.520;6.818;2023-02-20T20:07:01;101644.00;;;8.98;100.00
4528;BME280;62320;51.520;6.818;2023-02-20T20:17:03;101633.69;;;8.98;100.00
4528;BME280;62320;51.520;6.818;2023-02-20T20:27:04;101627.72;;;8.99;100.00
4528;BME280;62320;51.520;6.818;2023-02-20T20:37:06;101638.91;;;8.99;100.00
4528;BME280;62320;51.520;6.818;2023-02-20T20:47:07;101640.66;;;9.02;100.00
4528;BME280;62320;51.520;6.818;2023-02-20T20:57:08;101620.00;;;9.02;100.00
4528;BME280;62320;51.520;6.818;2023-02-20T21:07:10;101632.91;;;9.02;100.00
4528;BME280;62320;51.520;6.818;2023-02-20T21:17:12;101607.94;;;8.99;100.00
4528;BME280;62320;51.520;6.818;2023-02-20T21:27:14;101612.19;;;8.97;100.00
4528;BME280;62320;51.520;6.818;2023-02-20T21:37:15;101612.25;;;9.00;100.00
4528;BME280;62320;51.520;6.818;2023-02-20T21:47:18;101605.31;;;8.98;100.00
4528;BME280;62320;51.520;6.818;2023-02-20T21:57:20;101590.69;;;8.97;100.00
4528;BME280;62320;51.520;6.818;2023-02-20T22:07:21;101582.19;;;9.01;100.00
4528;BME280;62320;51.520;6.818;2023-02-20T22:17:41;101615.69;;;8.99;100.00
4528;BME280;62320;51.520;6.818;2023-02-20T22:28:02;101607.88;;;8.96;100.00
4528;BME280;62320;51.520;6.818;2023-02-20T22:38:22;101607.03;;;8.97;100.00
4528;BME280;62320;51.520;6.818;2023-02-20T22:48:42;101600.97;;;8.95;100.00
4528;BME280;62320;51.520;6.818;2023-02-20T22:59:02;101608.78;;;8.98;100.00
4528;BME280;62320;51.520;6.818;2023-02-20T23:09:23;101605.31;;;8.96;100.00
4528;BME280;62320;51.520;6.818;2023-02-20T23:19:43;101604.44;;;8.96;100.00
4528;BME280;62320;51.520;6.818;2023-02-20T23:30:03;101611.34;;;8.97;100.00
4528;BME280;62320;51.520;6.818;2023-02-20T23:40:23;101606.13;;;8.95;100.00
4528;BME280;62320;51.520;6.818;2023-02-20T23:50:44;101612.97;;;8.93;100.00
